sensor_id;sensor_type;location;lat;lon;timestamp;P1;durP1;ratioP1;P2;durP2;ratioP2
32094;SDS011;18608;53.688;10.748;2023-07-31T00:00:48;3.40;;;1.80;;
32094;SDS011;18608;53.688;10.748;2023-07-31T00:03:14;2.83;;;2.10;;
32094;SDS011;18608;53.688;10.748;2023-07-31T00:05:39;3.53;;;2.10;;
32094;SDS011;18608;53.688;10.748;2023-07-31T00:08:05;5.23;;;2.70;;
32094;SDS011;18608;53.688;10.748;2023-07-31T00:10:31;11.13;;;1.97;;
32094;SDS011;18608;53.688;10.748;2023-07-31T00:12:58;5.13;;;1.90;;
32094;SDS011;18608;53.688;10.748;2023-07-31T00:15:24;4.30;;;2.70;;
32094;SDS011;18608;53.688;10.748;2023-07-31T00:17:50;5.10;;;2.33;;
32094;SDS011;18608;53.688;10.748;2023-07-31T00:20:16;5.83;;;2.20;;
32094;SDS011;18608;53.688;10.748;2023-07-31T00:22:42;4.50;;;2.63;;
32094;SDS011;18608;53.688;10.748;2023-07-31T00:25:08;5.97;;;2.20;;
32094;SDS011;18608;53.688;10.748;2023-07-31T00:27:34;4.77;;;2.57;;
32094;SDS011;18608;53.688;10.748;2023-07-31T00:30:00;3.47;;;2.23;;
32094;SDS011;18608;53.688;10.748;2023-07-31T00:32:26;4.53;;;2.90;;
32094;SDS011;18608;53.688;10.748;2023-07-31T00:34:52;4.13;;;2.33;;
32094;SDS011;18608;53.688;10.748;2023-07-31T00:37:18;9.50;;;2.77;;
32094;SDS011;18608;53.688;10.748;2023-07-31T00:39:44;2.70;;;2.50;;
32094;SDS011;18608;53.688;10.748;2023-07-31T00:42:10;5.93;;;2.40;;
32094;SDS011;18608;53.688;10.748;2023-07-31T00:44:36;7.60;;;3.47;;
32094;SDS011;18608;53.688;10.748;2023-07-31T00:47:02;7.17;;;2.80;;
32094;SDS011;18608;53.688;10.748;2023-07-31T00:49:28;11.83;;;2.77;;
32094;SDS011;18608;53.688;10.748;2023-07-31T00:51:54;5.03;;;3.00;;
32094;SDS011;18608;53.688;10.748;2023-07-31T00:54:22;6.63;;;2.30;;
32094;SDS011;18608;53.688;10.748;2023-07-31T00:56:48;3.00;;;2.43;;
32094;SDS011;18608;53.688;10.748;2023-07-31T00:59:17;6.33;;;2.97;;
32094;SDS011;18608;53.688;10.748;2023-07-31T01:01:44;7.10;;;3.20;;
32094;SDS011;18608;53.688;10.748;2023-07-31T01:04:10;6.60;;;2.60;;
32094;SDS011;18608;53.688;10.748;2023-07-31T01:06:44;25.53;;;3.40;;
32094;SDS011;18608;53.688;10.748;2023-07-31T01:09:22;4.80;;;2.77;;
32094;SDS011;18608;53.688;10.748;2023-07-31T01:12:02;9.73;;;3.00;;
32094;SDS011;18608;53.688;10.748;2023-07-31T01:14:29;3.33;;;2.60;;
32094;SDS011;18608;53.688;10.748;2023-07-31T01:16:54;5.33;;;2.70;;
32094;SDS011;18608;53.688;10.748;2023-07-31T01:19:24;8.43;;;3.20;;
32094;SDS011;18608;53.688;10.748;2023-07-31T01:27:21;4.07;;;2.80;;
32094;SDS011;18608;53.688;10.748;2023-07-31T01:30:00;3.73;;;2.40;;
32094;SDS011;18608;53.688;10.748;2023-07-31T01:32:35;4.83;;;2.40;;
32094;SDS011;18608;53.688;10.748;2023-07-31T01:35:05;13.80;;;3.30;;
32094;SDS011;18608;53.688;10.748;2023-07-31T01:37:31;5.53;;;2.70;;
32094;SDS011;18608;53.688;10.748;2023-07-31T01:39:57;10.33;;;3.13;;
32094;SDS011;18608;53.688;10.748;2023-07-31T01:42:23;7.23;;;3.40;;
32094;SDS011;18608;53.688;10.748;2023-07-31T01:44:49;7.60;;;2.97;;
32094;SDS011;18608;53.688;10.748;2023-07-31T01:47:15;6.97;;;2.70;;
32094;SDS011;18608;53.688;10.748;2023-07-31T01:49:41;7.73;;;3.00;;
32094;SDS011;18608;53.688;10.748;2023-07-31T01:52:07;4.10;;;2.93;;
32094;SDS011;18608;53.688;10.748;2023-07-31T01:54:33;4.77;;;2.53;;
32094;SDS011;18608;53.688;10.748;2023-07-31T01:57:01;5.87;;;3.40;;
32094;SDS011;18608;53.688;10.748;2023-07-31T01:59:27;6.13;;;2.80;;
32094;SDS011;18608;53.688;10.748;2023-07-31T02:01:54;3.20;;;2.90;;
32094;SDS011;18608;53.688;10.748;2023-07-31T02:04:20;9.90;;;3.33;;
32094;SDS011;18608;53.688;10.748;2023-07-31T02:06:46;6.33;;;2.93;;
32094;SDS011;18608;53.688;10.748;2023-07-31T02:09:12;7.60;;;3.47;;
32094;SDS011;18608;53.688;10.748;2023-07-31T02:11:38;3.60;;;3.27;;
32094;SDS011;18608;53.688;10.748;2023-07-31T02:14:04;5.43;;;3.07;;
32094;SDS011;18608;53.688;10.748;2023-07-31T02:16:30;3.87;;;2.90;;
32094;SDS011;18608;53.688;10.748;2023-07-31T02:18:56;5.53;;;3.30;;
32094;SDS011;18608;53.688;10.748;2023-07-31T02:21:22;5.93;;;3.37;;
32094;SDS011;18608;53.688;10.748;2023-07-31T02:23:48;9.33;;;2.90;;
32094;SDS011;18608;53.688;10.748;2023-07-31T02:26:14;9.83;;;3.60;;
32094;SDS011;18608;53.688;10.748;2023-07-31T02:28:40;6.10;;;3.43;;
32094;SDS011;18608;53.688;10.748;2023-07-31T02:31:08;8.53;;;2.80;;
32094;SDS011;18608;53.688;10.748;2023-07-31T02:33:34;6.97;;;3.43;;
32094;SDS011;18608;53.688;10.748;2023-07-31T02:36:00;3.60;;;3.30;;
32094;SDS011;18608;53.688;10.748;2023-07-31T02:38:26;8.63;;;3.90;;
32094;SDS011;18608;53.688;10.748;2023-07-31T02:40:52;5.33;;;3.27;;
32094;SDS011;18608;53.688;10.748;2023-07-31T02:43:18;4.33;;;3.87;;
32094;SDS011;18608;53.688;10.748;2023-07-31T02:45:44;19.27;;;3.47;;
32094;SDS011;18608;53.688;10.748;2023-07-31T02:48:10;9.63;;;3.97;;
32094;SDS011;18608;53.688;10.748;2023-07-31T02:50:36;5.77;;;3.60;;
32094;SDS011;18608;53.688;10.748;2023-07-31T02:53:02;14.70;;;3.40;;
32094;SDS011;18608;53.688;10.748;2023-07-31T02:55:28;6.20;;;3.40;;
32094;SDS011;18608;53.688;10.748;2023-07-31T02:57:54;9.33;;;4.53;;
32094;SDS011;18608;53.688;10.748;2023-07-31T03:00:20;6.60;;;3.83;;
32094;SDS011;18608;53.688;10.748;2023-07-31T03:02:46;11.60;;;3.63;;
32094;SDS011;18608;53.688;10.748;2023-07-31T03:05:12;3.23;;;2.93;;
32094;SDS011;18608;53.688;10.748;2023-07-31T03:07:38;10.40;;;3.60;;
32094;SDS011;18608;53.688;10.748;2023-07-31T03:10:04;5.77;;;3.87;;
32094;SDS011;18608;53.688;10.748;2023-07-31T03:12:31;11.37;;;4.63;;
32094;SDS011;18608;53.688;10.748;2023-07-31T03:14:57;16.07;;;3.53;;
32094;SDS011;18608;53.688;10.748;2023-07-31T03:17:23;9.40;;;4.43;;
32094;SDS011;18608;53.688;10.748;2023-07-31T03:19:49;11.23;;;4.17;;
32094;SDS011;18608;53.688;10.748;2023-07-31T03:22:15;14.97;;;3.57;;
32094;SDS011;18608;53.688;10.748;2023-07-31T03:24:41;7.90;;;3.83;;
32094;SDS011;18608;53.688;10.748;2023-07-31T03:27:07;17.70;;;3.90;;
32094;SDS011;18608;53.688;10.748;2023-07-31T03:29:33;11.43;;;4.30;;
32094;SDS011;18608;53.688;10.748;2023-07-31T03:31:59;11.70;;;3.83;;
32094;SDS011;18608;53.688;10.748;2023-07-31T03:34:25;8.10;;;4.60;;
32094;SDS011;18608;53.688;10.748;2023-07-31T03:36:51;7.87;;;3.80;;
32094;SDS011;18608;53.688;10.748;2023-07-31T03:39:18;6.57;;;3.77;;
32094;SDS011;18608;53.688;10.748;2023-07-31T03:41:44;5.57;;;3.67;;
32094;SDS011;18608;53.688;10.748;2023-07-31T03:44:10;12.13;;;3.90;;
32094;SDS011;18608;53.688;10.748;2023-07-31T03:46:36;9.13;;;4.40;;
32094;SDS011;18608;53.688;10.748;2023-07-31T03:49:02;6.90;;;5.10;;
32094;SDS011;18608;53.688;10.748;2023-07-31T03:51:28;7.93;;;4.40;;
32094;SDS011;18608;53.688;10.748;2023-07-31T03:53:54;9.57;;;3.40;;
32094;SDS011;18608;53.688;10.748;2023-07-31T03:56:20;11.93;;;4.00;;
32094;SDS011;18608;53.688;10.748;2023-07-31T03:58:47;7.00;;;4.40;;
32094;SDS011;18608;53.688;10.748;2023-07-31T04:01:13;5.60;;;4.53;;
32094;SDS011;18608;53.688;10.748;2023-07-31T04:03:39;5.67;;;3.80;;
32094;SDS011;18608;53.688;10.748;2023-07-31T04:06:05;8.60;;;4.00;;
32094;SDS011;18608;53.688;10.748;2023-07-31T04:08:32;7.03;;;3.97;;
32094;SDS011;18608;53.688;10.748;2023-07-31T04:10:58;8.00;;;4.60;;
32094;SDS011;18608;53.688;10.748;2023-07-31T04:13:24;10.73;;;4.73;;
32094;SDS011;18608;53.688;10.748;2023-07-31T04:15:52;5.20;;;4.70;;
32094;SDS011;18608;53.688;10.748;2023-07-31T04:18:19;7.83;;;4.80;;
32094;SDS011;18608;53.688;10.748;2023-07-31T04:20:45;7.40;;;4.40;;
32094;SDS011;18608;53.688;10.748;2023-07-31T04:23:11;11.23;;;4.70;;
32094;SDS011;18608;53.688;10.748;2023-07-31T04:25:37;11.83;;;4.70;;
32094;SDS011;18608;53.688;10.748;2023-07-31T04:28:03;5.80;;;5.20;;
32094;SDS011;18608;53.688;10.748;2023-07-31T04:30:29;8.80;;;5.83;;
32094;SDS011;18608;53.688;10.748;2023-07-31T04:32:55;9.43;;;6.00;;
32094;SDS011;18608;53.688;10.748;2023-07-31T04:35:21;12.53;;;6.63;;
32094;SDS011;18608;53.688;10.748;2023-07-31T04:37:47;11.20;;;6.13;;
32094;SDS011;18608;53.688;10.748;2023-07-31T04:40:14;6.70;;;6.00;;
32094;SDS011;18608;53.688;10.748;2023-07-31T04:42:40;14.63;;;6.10;;
32094;SDS011;18608;53.688;10.748;2023-07-31T04:45:08;10.53;;;6.20;;
32094;SDS011;18608;53.688;10.748;2023-07-31T04:47:34;10.33;;;7.43;;
32094;SDS011;18608;53.688;10.748;2023-07-31T04:50:00;12.33;;;6.67;;
32094;SDS011;18608;53.688;10.748;2023-07-31T04:52:26;11.20;;;6.27;;
32094;SDS011;18608;53.688;10.748;2023-07-31T04:54:52;11.40;;;6.93;;
32094;SDS011;18608;53.688;10.748;2023-07-31T04:57:18;13.10;;;6.53;;
32094;SDS011;18608;53.688;10.748;2023-07-31T04:59:44;13.13;;;6.73;;
32094;SDS011;18608;53.688;10.748;2023-07-31T05:02:11;14.77;;;7.13;;
32094;SDS011;18608;53.688;10.748;2023-07-31T05:04:37;12.80;;;7.90;;
32094;SDS011;18608;53.688;10.748;2023-07-31T05:07:03;9.90;;;6.77;;
32094;SDS011;18608;53.688;10.748;2023-07-31T05:09:29;15.63;;;7.07;;
32094;SDS011;18608;53.688;10.748;2023-07-31T05:11:55;12.73;;;8.20;;
32094;SDS011;18608;53.688;10.748;2023-07-31T05:14:21;11.73;;;7.57;;
32094;SDS011;18608;53.688;10.748;2023-07-31T05:16:47;14.40;;;8.63;;
32094;SDS011;18608;53.688;10.748;2023-07-31T05:19:13;9.97;;;7.37;;
32094;SDS011;18608;53.688;10.748;2023-07-31T05:21:39;14.00;;;7.60;;
32094;SDS011;18608;53.688;10.748;2023-07-31T05:24:06;9.90;;;7.63;;
32094;SDS011;18608;53.688;10.748;2023-07-31T05:26:32;9.80;;;7.40;;
32094;SDS011;18608;53.688;10.748;2023-07-31T05:28:58;7.33;;;6.63;;
32094;SDS011;18608;53.688;10.748;2023-07-31T05:31:24;7.93;;;7.03;;
32094;SDS011;18608;53.688;10.748;2023-07-31T05:33:50;8.00;;;7.20;;
32094;SDS011;18608;53.688;10.748;2023-07-31T05:36:16;10.33;;;7.67;;
32094;SDS011;18608;53.688;10.748;2023-07-31T05:38:42;9.33;;;6.60;;
32094;SDS011;18608;53.688;10.748;2023-07-31T05:41:11;9.50;;;6.83;;
32094;SDS011;18608;53.688;10.748;2023-07-31T05:43:38;10.10;;;6.50;;
32094;SDS011;18608;53.688;10.748;2023-07-31T05:46:04;9.73;;;6.70;;
32094;SDS011;18608;53.688;10.748;2023-07-31T05:48:31;6.00;;;5.50;;
32094;SDS011;18608;53.688;10.748;2023-07-31T05:50:59;6.43;;;5.73;;
32094;SDS011;18608;53.688;10.748;2023-07-31T05:53:25;10.20;;;5.50;;
32094;SDS011;18608;53.688;10.748;2023-07-31T05:55:51;11.47;;;5.60;;
32094;SDS011;18608;53.688;10.748;2023-07-31T05:58:17;9.47;;;6.60;;
32094;SDS011;18608;53.688;10.748;2023-07-31T06:00:43;6.67;;;5.77;;
32094;SDS011;18608;53.688;10.748;2023-07-31T06:03:09;7.00;;;5.87;;
32094;SDS011;18608;53.688;10.748;2023-07-31T06:05:35;6.03;;;5.43;;
32094;SDS011;18608;53.688;10.748;2023-07-31T06:08:01;6.27;;;4.83;;
32094;SDS011;18608;53.688;10.748;2023-07-31T06:10:27;9.60;;;6.97;;
32094;SDS011;18608;53.688;10.748;2023-07-31T06:12:53;8.23;;;5.60;;
32094;SDS011;18608;53.688;10.748;2023-07-31T06:15:19;14.17;;;6.30;;
32094;SDS011;18608;53.688;10.748;2023-07-31T06:17:45;5.70;;;5.13;;
32094;SDS011;18608;53.688;10.748;2023-07-31T06:20:11;5.17;;;4.67;;
32094;SDS011;18608;53.688;10.748;2023-07-31T06:22:38;6.43;;;5.83;;
32094;SDS011;18608;53.688;10.748;2023-07-31T06:25:04;5.83;;;5.30;;
32094;SDS011;18608;53.688;10.748;2023-07-31T06:27:30;5.53;;;4.90;;
32094;SDS011;18608;53.688;10.748;2023-07-31T06:29:57;5.40;;;4.90;;
32094;SDS011;18608;53.688;10.748;2023-07-31T06:32:22;7.93;;;5.23;;
32094;SDS011;18608;53.688;10.748;2023-07-31T06:34:48;5.43;;;4.90;;
32094;SDS011;18608;53.688;10.748;2023-07-31T06:37:14;7.20;;;5.17;;
32094;SDS011;18608;53.688;10.748;2023-07-31T06:39:40;5.47;;;5.00;;
32094;SDS011;18608;53.688;10.748;2023-07-31T06:42:06;7.60;;;4.50;;
32094;SDS011;18608;53.688;10.748;2023-07-31T06:44:32;5.90;;;5.27;;
32094;SDS011;18608;53.688;10.748;2023-07-31T06:46:58;6.20;;;5.60;;
32094;SDS011;18608;53.688;10.748;2023-07-31T06:49:24;5.73;;;4.70;;
32094;SDS011;18608;53.688;10.748;2023-07-31T06:51:50;5.50;;;4.27;;
32094;SDS011;18608;53.688;10.748;2023-07-31T06:54:16;7.93;;;5.97;;
32094;SDS011;18608;53.688;10.748;2023-07-31T06:56:42;5.30;;;4.80;;
32094;SDS011;18608;53.688;10.748;2023-07-31T06:59:08;6.40;;;4.50;;
32094;SDS011;18608;53.688;10.748;2023-07-31T07:01:34;4.93;;;4.37;;
32094;SDS011;18608;53.688;10.748;2023-07-31T07:04:01;5.77;;;5.13;;
32094;SDS011;18608;53.688;10.748;2023-07-31T07:06:27;5.40;;;4.63;;
32094;SDS011;18608;53.688;10.748;2023-07-31T07:08:53;7.50;;;4.40;;
32094;SDS011;18608;53.688;10.748;2023-07-31T07:11:19;7.43;;;4.70;;
32094;SDS011;18608;53.688;10.748;2023-07-31T07:13:45;8.00;;;5.63;;
32094;SDS011;18608;53.688;10.748;2023-07-31T07:16:11;5.13;;;4.73;;
32094;SDS011;18608;53.688;10.748;2023-07-31T07:18:37;3.50;;;3.20;;
32094;SDS011;18608;53.688;10.748;2023-07-31T07:21:03;4.87;;;4.17;;
32094;SDS011;18608;53.688;10.748;2023-07-31T07:23:29;9.57;;;5.47;;
32094;SDS011;18608;53.688;10.748;2023-07-31T07:25:55;3.90;;;3.57;;
32094;SDS011;18608;53.688;10.748;2023-07-31T07:28:21;4.70;;;3.30;;
32094;SDS011;18608;53.688;10.748;2023-07-31T07:30:51;6.00;;;4.17;;
32094;SDS011;18608;53.688;10.748;2023-07-31T07:33:20;4.47;;;4.07;;
32094;SDS011;18608;53.688;10.748;2023-07-31T07:35:46;3.87;;;3.57;;
32094;SDS011;18608;53.688;10.748;2023-07-31T07:38:13;4.20;;;3.80;;
32094;SDS011;18608;53.688;10.748;2023-07-31T07:40:40;3.87;;;3.47;;
32094;SDS011;18608;53.688;10.748;2023-07-31T07:43:06;4.33;;;3.93;;
32094;SDS011;18608;53.688;10.748;2023-07-31T07:45:32;4.37;;;3.90;;
32094;SDS011;18608;53.688;10.748;2023-07-31T07:47:58;4.03;;;3.73;;
32094;SDS011;18608;53.688;10.748;2023-07-31T07:50:24;3.63;;;3.33;;
32094;SDS011;18608;53.688;10.748;2023-07-31T07:52:50;3.50;;;3.20;;
32094;SDS011;18608;53.688;10.748;2023-07-31T07:55:16;3.23;;;3.00;;
32094;SDS011;18608;53.688;10.748;2023-07-31T07:57:42;4.97;;;3.13;;
32094;SDS011;18608;53.688;10.748;2023-07-31T08:00:09;3.83;;;3.57;;
32094;SDS011;18608;53.688;10.748;2023-07-31T08:02:36;2.60;;;2.40;;
32094;SDS011;18608;53.688;10.748;2023-07-31T08:05:02;3.30;;;3.00;;
32094;SDS011;18608;53.688;10.748;2023-07-31T08:07:28;3.80;;;3.20;;
32094;SDS011;18608;53.688;10.748;2023-07-31T08:09:54;3.23;;;2.93;;
32094;SDS011;18608;53.688;10.748;2023-07-31T08:12:20;3.07;;;2.80;;
32094;SDS011;18608;53.688;10.748;2023-07-31T08:14:46;3.80;;;3.40;;
32094;SDS011;18608;53.688;10.748;2023-07-31T08:17:12;7.17;;;3.27;;
32094;SDS011;18608;53.688;10.748;2023-07-31T08:19:38;3.20;;;2.93;;
32094;SDS011;18608;53.688;10.748;2023-07-31T08:22:04;3.23;;;3.03;;
32094;SDS011;18608;53.688;10.748;2023-07-31T08:24:30;3.37;;;3.10;;
32094;SDS011;18608;53.688;10.748;2023-07-31T08:26:56;3.40;;;3.10;;
32094;SDS011;18608;53.688;10.748;2023-07-31T08:29:22;3.03;;;2.70;;
32094;SDS011;18608;53.688;10.748;2023-07-31T08:31:49;2.53;;;2.43;;
32094;SDS011;18608;53.688;10.748;2023-07-31T08:34:14;3.20;;;2.80;;
32094;SDS011;18608;53.688;10.748;2023-07-31T08:36:40;3.50;;;3.20;;
32094;SDS011;18608;53.688;10.748;2023-07-31T08:39:06;2.13;;;2.03;;
32094;SDS011;18608;53.688;10.748;2023-07-31T08:41:37;2.70;;;2.50;;
32094;SDS011;18608;53.688;10.748;2023-07-31T08:44:06;2.80;;;2.60;;
32094;SDS011;18608;53.688;10.748;2023-07-31T08:46:32;3.03;;;2.77;;
32094;SDS011;18608;53.688;10.748;2023-07-31T08:48:58;1.83;;;1.73;;
32094;SDS011;18608;53.688;10.748;2023-07-31T08:51:25;2.70;;;2.50;;
32094;SDS011;18608;53.688;10.748;2023-07-31T08:53:52;2.70;;;2.50;;
32094;SDS011;18608;53.688;10.748;2023-07-31T08:56:18;3.20;;;2.90;;
32094;SDS011;18608;53.688;10.748;2023-07-31T08:58:44;3.90;;;2.37;;
32094;SDS011;18608;53.688;10.748;2023-07-31T09:01:11;2.80;;;2.60;;
32094;SDS011;18608;53.688;10.748;2023-07-31T09:03:37;2.73;;;2.30;;
32094;SDS011;18608;53.688;10.748;2023-07-31T09:06:05;1.80;;;1.70;;
32094;SDS011;18608;53.688;10.748;2023-07-31T09:08:32;1.90;;;1.80;;
32094;SDS011;18608;53.688;10.748;2023-07-31T09:10:59;3.67;;;2.03;;
32094;SDS011;18608;53.688;10.748;2023-07-31T09:13:29;2.13;;;2.03;;
32094;SDS011;18608;53.688;10.748;2023-07-31T09:15:56;2.70;;;2.50;;
32094;SDS011;18608;53.688;10.748;2023-07-31T09:18:22;2.20;;;2.00;;
32094;SDS011;18608;53.688;10.748;2023-07-31T09:21:03;1.90;;;1.80;;
32094;SDS011;18608;53.688;10.748;2023-07-31T09:23:43;2.50;;;2.10;;
32094;SDS011;18608;53.688;10.748;2023-07-31T09:26:10;2.50;;;2.30;;
32094;SDS011;18608;53.688;10.748;2023-07-31T09:28:36;2.13;;;1.93;;
32094;SDS011;18608;53.688;10.748;2023-07-31T09:31:02;2.73;;;2.37;;
32094;SDS011;18608;53.688;10.748;2023-07-31T09:33:28;1.80;;;1.70;;
32094;SDS011;18608;53.688;10.748;2023-07-31T09:38:54;2.37;;;2.17;;
32094;SDS011;18608;53.688;10.748;2023-07-31T09:41:20;2.53;;;2.33;;
32094;SDS011;18608;53.688;10.748;2023-07-31T09:43:53;2.50;;;1.93;;
32094;SDS011;18608;53.688;10.748;2023-07-31T09:46:20;1.70;;;1.60;;
32094;SDS011;18608;53.688;10.748;2023-07-31T09:48:46;1.93;;;1.83;;
32094;SDS011;18608;53.688;10.748;2023-07-31T09:57:57;1.40;;;1.30;;
32094;SDS011;18608;53.688;10.748;2023-07-31T10:00:23;1.93;;;1.83;;
32094;SDS011;18608;53.688;10.748;2023-07-31T10:02:53;1.53;;;1.43;;
32094;SDS011;18608;53.688;10.748;2023-07-31T10:05:22;1.60;;;1.50;;
32094;SDS011;18608;53.688;10.748;2023-07-31T10:07:53;1.43;;;1.37;;
32094;SDS011;18608;53.688;10.748;2023-07-31T10:10:21;1.47;;;1.37;;
32094;SDS011;18608;53.688;10.748;2023-07-31T10:12:51;0.90;;;0.90;;
32094;SDS011;18608;53.688;10.748;2023-07-31T10:15:18;0.90;;;0.90;;
32094;SDS011;18608;53.688;10.748;2023-07-31T10:17:46;1.70;;;1.60;;
32094;SDS011;18608;53.688;10.748;2023-07-31T10:20:13;0.97;;;0.90;;
32094;SDS011;18608;53.688;10.748;2023-07-31T10:22:41;1.20;;;1.10;;
32094;SDS011;18608;53.688;10.748;2023-07-31T10:25:07;1.03;;;1.03;;
32094;SDS011;18608;53.688;10.748;2023-07-31T10:27:34;1.00;;;1.00;;
32094;SDS011;18608;53.688;10.748;2023-07-31T10:30:02;1.23;;;0.70;;
32094;SDS011;18608;53.688;10.748;2023-07-31T10:32:30;1.77;;;0.90;;
32094;SDS011;18608;53.688;10.748;2023-07-31T10:34:56;0.70;;;0.70;;
32094;SDS011;18608;53.688;10.748;2023-07-31T10:39:56;0.70;;;0.70;;
32094;SDS011;18608;53.688;10.748;2023-07-31T10:42:32;0.87;;;0.80;;
32094;SDS011;18608;53.688;10.748;2023-07-31T10:45:07;0.90;;;0.90;;
32094;SDS011;18608;53.688;10.748;2023-07-31T10:47:44;0.80;;;0.70;;
32094;SDS011;18608;53.688;10.748;2023-07-31T10:52:37;0.70;;;0.60;;
32094;SDS011;18608;53.688;10.748;2023-07-31T10:55:16;1.00;;;0.70;;
32094;SDS011;18608;53.688;10.748;2023-07-31T10:57:52;0.70;;;0.70;;
32094;SDS011;18608;53.688;10.748;2023-07-31T11:03:00;0.50;;;0.50;;
32094;SDS011;18608;53.688;10.748;2023-07-31T11:08:25;0.70;;;0.70;;
32094;SDS011;18608;53.688;10.748;2023-07-31T11:13:27;0.50;;;0.50;;
32094;SDS011;18608;53.688;10.748;2023-07-31T11:15:53;0.50;;;0.50;;
32094;SDS011;18608;53.688;10.748;2023-07-31T11:18:19;0.40;;;0.40;;
32094;SDS011;18608;53.688;10.748;2023-07-31T11:20:45;2.20;;;0.50;;
32094;SDS011;18608;53.688;10.748;2023-07-31T11:23:11;0.50;;;0.50;;
32094;SDS011;18608;53.688;10.748;2023-07-31T11:25:37;0.93;;;0.60;;
32094;SDS011;18608;53.688;10.748;2023-07-31T11:28:07;0.50;;;0.50;;
32094;SDS011;18608;53.688;10.748;2023-07-31T11:30:36;0.60;;;0.60;;
32094;SDS011;18608;53.688;10.748;2023-07-31T11:33:03;0.50;;;0.50;;
32094;SDS011;18608;53.688;10.748;2023-07-31T11:35:30;0.50;;;0.50;;
32094;SDS011;18608;53.688;10.748;2023-07-31T11:37:57;0.60;;;0.60;;
32094;SDS011;18608;53.688;10.748;2023-07-31T11:40:23;0.60;;;0.50;;
32094;SDS011;18608;53.688;10.748;2023-07-31T11:42:56;0.60;;;0.60;;
32094;SDS011;18608;53.688;10.748;2023-07-31T11:45:24;0.50;;;0.50;;
32094;SDS011;18608;53.688;10.748;2023-07-31T11:47:51;1.00;;;0.50;;
32094;SDS011;18608;53.688;10.748;2023-07-31T11:50:17;0.60;;;0.60;;
32094;SDS011;18608;53.688;10.748;2023-07-31T11:52:44;0.70;;;0.60;;
32094;SDS011;18608;53.688;10.748;2023-07-31T11:55:11;1.43;;;1.00;;
32094;SDS011;18608;53.688;10.748;2023-07-31T11:57:38;1.03;;;0.60;;
32094;SDS011;18608;53.688;10.748;2023-07-31T12:00:06;0.77;;;0.50;;
32094;SDS011;18608;53.688;10.748;2023-07-31T12:02:34;0.70;;;0.60;;
32094;SDS011;18608;53.688;10.748;2023-07-31T12:05:01;0.67;;;0.67;;
32094;SDS011;18608;53.688;10.748;2023-07-31T12:07:27;0.70;;;0.70;;
32094;SDS011;18608;53.688;10.748;2023-07-31T12:09:53;1.23;;;0.70;;
32094;SDS011;18608;53.688;10.748;2023-07-31T12:12:23;0.90;;;0.90;;
32094;SDS011;18608;53.688;10.748;2023-07-31T12:14:51;0.87;;;0.87;;
32094;SDS011;18608;53.688;10.748;2023-07-31T12:17:18;0.73;;;0.73;;
32094;SDS011;18608;53.688;10.748;2023-07-31T12:19:45;1.47;;;0.80;;
32094;SDS011;18608;53.688;10.748;2023-07-31T12:22:11;2.30;;;1.60;;
32094;SDS011;18608;53.688;10.748;2023-07-31T12:24:42;1.10;;;0.70;;
32094;SDS011;18608;53.688;10.748;2023-07-31T12:27:11;1.30;;;1.20;;
32094;SDS011;18608;53.688;10.748;2023-07-31T12:29:43;0.70;;;0.70;;
32094;SDS011;18608;53.688;10.748;2023-07-31T12:32:22;1.17;;;1.07;;
32094;SDS011;18608;53.688;10.748;2023-07-31T12:34:53;1.23;;;0.83;;
32094;SDS011;18608;53.688;10.748;2023-07-31T12:37:20;0.73;;;0.73;;
32094;SDS011;18608;53.688;10.748;2023-07-31T12:39:46;0.90;;;0.90;;
32094;SDS011;18608;53.688;10.748;2023-07-31T12:42:12;0.70;;;0.70;;
32094;SDS011;18608;53.688;10.748;2023-07-31T12:44:38;0.97;;;0.97;;
32094;SDS011;18608;53.688;10.748;2023-07-31T12:47:05;2.60;;;0.70;;
32094;SDS011;18608;53.688;10.748;2023-07-31T12:49:31;1.67;;;0.77;;
32094;SDS011;18608;53.688;10.748;2023-07-31T12:51:57;0.60;;;0.60;;
32094;SDS011;18608;53.688;10.748;2023-07-31T12:54:23;1.53;;;0.80;;
32094;SDS011;18608;53.688;10.748;2023-07-31T12:56:49;0.60;;;0.60;;
32094;SDS011;18608;53.688;10.748;2023-07-31T12:59:15;0.70;;;0.70;;
32094;SDS011;18608;53.688;10.748;2023-07-31T13:01:41;4.60;;;0.80;;
32094;SDS011;18608;53.688;10.748;2023-07-31T13:04:07;0.80;;;0.70;;
32094;SDS011;18608;53.688;10.748;2023-07-31T13:06:33;2.83;;;0.70;;
32094;SDS011;18608;53.688;10.748;2023-07-31T13:08:59;1.20;;;0.90;;
32094;SDS011;18608;53.688;10.748;2023-07-31T13:11:25;1.00;;;0.90;;
32094;SDS011;18608;53.688;10.748;2023-07-31T13:13:51;0.70;;;0.70;;
32094;SDS011;18608;53.688;10.748;2023-07-31T13:16:17;1.30;;;0.90;;
32094;SDS011;18608;53.688;10.748;2023-07-31T13:18:43;0.80;;;0.80;;
32094;SDS011;18608;53.688;10.748;2023-07-31T13:21:09;1.27;;;1.17;;
32094;SDS011;18608;53.688;10.748;2023-07-31T13:23:35;1.93;;;0.80;;
32094;SDS011;18608;53.688;10.748;2023-07-31T13:26:01;1.00;;;0.90;;
32094;SDS011;18608;53.688;10.748;2023-07-31T13:28:27;1.13;;;0.80;;
32094;SDS011;18608;53.688;10.748;2023-07-31T13:30:53;1.00;;;0.80;;
32094;SDS011;18608;53.688;10.748;2023-07-31T13:33:19;0.80;;;0.80;;
32094;SDS011;18608;53.688;10.748;2023-07-31T13:35:45;1.07;;;0.97;;
32094;SDS011;18608;53.688;10.748;2023-07-31T13:38:11;1.50;;;1.20;;
32094;SDS011;18608;53.688;10.748;2023-07-31T13:40:37;1.30;;;1.20;;
32094;SDS011;18608;53.688;10.748;2023-07-31T13:43:03;2.17;;;1.37;;
32094;SDS011;18608;53.688;10.748;2023-07-31T13:45:29;1.67;;;1.00;;
32094;SDS011;18608;53.688;10.748;2023-07-31T13:47:55;1.00;;;0.90;;
32094;SDS011;18608;53.688;10.748;2023-07-31T13:50:21;2.03;;;1.53;;
32094;SDS011;18608;53.688;10.748;2023-07-31T13:52:47;6.90;;;1.50;;
32094;SDS011;18608;53.688;10.748;2023-07-31T13:55:13;1.60;;;1.30;;
32094;SDS011;18608;53.688;10.748;2023-07-31T13:57:39;0.97;;;0.90;;
32094;SDS011;18608;53.688;10.748;2023-07-31T14:00:05;1.53;;;1.43;;
32094;SDS011;18608;53.688;10.748;2023-07-31T14:02:32;1.47;;;1.37;;
32094;SDS011;18608;53.688;10.748;2023-07-31T14:04:57;6.70;;;1.90;;
32094;SDS011;18608;53.688;10.748;2023-07-31T14:07:24;1.97;;;1.23;;
32094;SDS011;18608;53.688;10.748;2023-07-31T14:09:50;3.07;;;1.30;;
32094;SDS011;18608;53.688;10.748;2023-07-31T14:12:16;1.13;;;1.03;;
32094;SDS011;18608;53.688;10.748;2023-07-31T14:14:42;0.90;;;0.90;;
32094;SDS011;18608;53.688;10.748;2023-07-31T14:17:07;1.73;;;1.63;;
32094;SDS011;18608;53.688;10.748;2023-07-31T14:19:33;3.83;;;1.23;;
32094;SDS011;18608;53.688;10.748;2023-07-31T14:21:59;1.60;;;1.50;;
32094;SDS011;18608;53.688;10.748;2023-07-31T14:24:25;2.50;;;1.23;;
32094;SDS011;18608;53.688;10.748;2023-07-31T14:26:51;2.63;;;1.20;;
32094;SDS011;18608;53.688;10.748;2023-07-31T14:29:17;1.13;;;1.03;;
32094;SDS011;18608;53.688;10.748;2023-07-31T14:31:43;1.83;;;1.40;;
32094;SDS011;18608;53.688;10.748;2023-07-31T14:34:09;1.50;;;1.03;;
32094;SDS011;18608;53.688;10.748;2023-07-31T14:36:35;1.90;;;1.20;;
32094;SDS011;18608;53.688;10.748;2023-07-31T14:39:01;1.20;;;1.10;;
32094;SDS011;18608;53.688;10.748;2023-07-31T14:41:27;2.20;;;1.50;;
32094;SDS011;18608;53.688;10.748;2023-07-31T14:43:53;2.27;;;1.57;;
32094;SDS011;18608;53.688;10.748;2023-07-31T14:46:19;1.57;;;1.47;;
32094;SDS011;18608;53.688;10.748;2023-07-31T14:48:45;3.20;;;1.10;;
32094;SDS011;18608;53.688;10.748;2023-07-31T14:51:11;1.87;;;1.13;;
32094;SDS011;18608;53.688;10.748;2023-07-31T14:53:37;1.40;;;1.30;;
32094;SDS011;18608;53.688;10.748;2023-07-31T14:56:03;1.40;;;1.30;;
32094;SDS011;18608;53.688;10.748;2023-07-31T14:58:29;1.33;;;1.23;;